sensor_id;sensor_type;location;lat;lon;timestamp;P1;durP1;ratioP1;P2;durP2;ratioP2
40072;SDS011;25774;52.256;9.356;2023-09-19T00:02:16;3.38;;;0.68;;
40072;SDS011;25774;52.256;9.356;2023-09-19T00:04:42;1.50;;;0.70;;
40072;SDS011;25774;52.256;9.356;2023-09-19T00:07:08;2.38;;;0.95;;
40072;SDS011;25774;52.256;9.356;2023-09-19T00:09:34;1.27;;;0.65;;
40072;SDS011;25774;52.256;9.356;2023-09-19T00:12:03;1.65;;;0.63;;
40072;SDS011;25774;52.256;9.356;2023-09-19T00:14:30;2.05;;;0.90;;
40072;SDS011;25774;52.256;9.356;2023-09-19T00:16:55;1.55;;;0.75;;
40072;SDS011;25774;52.256;9.356;2023-09-19T00:19:20;2.53;;;0.83;;
40072;SDS011;25774;52.256;9.356;2023-09-19T00:21:46;1.93;;;0.70;;
40072;SDS011;25774;52.256;9.356;2023-09-19T00:26:42;3.22;;;0.80;;
40072;SDS011;25774;52.256;9.356;2023-09-19T00:29:08;2.92;;;1.10;;
40072;SDS011;25774;52.256;9.356;2023-09-19T00:31:35;2.00;;;0.80;;
40072;SDS011;25774;52.256;9.356;2023-09-19T00:34:03;2.38;;;1.10;;
40072;SDS011;25774;52.256;9.356;2023-09-19T00:36:30;3.63;;;1.10;;
40072;SDS011;25774;52.256;9.356;2023-09-19T00:41:22;2.20;;;0.95;;
40072;SDS011;25774;52.256;9.356;2023-09-19T00:43:49;2.70;;;1.20;;
40072;SDS011;25774;52.256;9.356;2023-09-19T00:46:19;3.30;;;1.17;;
40072;SDS011;25774;52.256;9.356;2023-09-19T00:48:44;3.97;;;1.40;;
40072;SDS011;25774;52.256;9.356;2023-09-19T00:51:12;3.00;;;1.60;;
40072;SDS011;25774;52.256;9.356;2023-09-19T00:53:39;3.85;;;1.40;;
40072;SDS011;25774;52.256;9.356;2023-09-19T00:56:04;2.33;;;1.38;;
40072;SDS011;25774;52.256;9.356;2023-09-19T00:58:33;2.47;;;1.15;;
40072;SDS011;25774;52.256;9.356;2023-09-19T01:00:59;4.20;;;1.30;;
40072;SDS011;25774;52.256;9.356;2023-09-19T01:03:24;3.40;;;1.70;;
40072;SDS011;25774;52.256;9.356;2023-09-19T01:05:49;3.73;;;1.80;;
40072;SDS011;25774;52.256;9.356;2023-09-19T01:08:17;3.43;;;1.63;;
40072;SDS011;25774;52.256;9.356;2023-09-19T01:18:43;4.22;;;2.05;;
40072;SDS011;25774;52.256;9.356;2023-09-19T01:24:10;3.53;;;1.67;;
40072;SDS011;25774;52.256;9.356;2023-09-19T01:32:02;3.33;;;1.50;;
40072;SDS011;25774;52.256;9.356;2023-09-19T01:34:46;3.47;;;1.42;;
40072;SDS011;25774;52.256;9.356;2023-09-19T01:37:12;4.03;;;1.65;;
40072;SDS011;25774;52.256;9.356;2023-09-19T01:39:39;3.65;;;1.95;;
40072;SDS011;25774;52.256;9.356;2023-09-19T01:42:15;5.35;;;1.75;;
40072;SDS011;25774;52.256;9.356;2023-09-19T01:44:50;5.05;;;2.10;;
40072;SDS011;25774;52.256;9.356;2023-09-19T01:47:19;7.53;;;2.28;;
40072;SDS011;25774;52.256;9.356;2023-09-19T01:52:36;4.32;;;1.77;;
40072;SDS011;25774;52.256;9.356;2023-09-19T01:55:09;4.95;;;2.20;;
40072;SDS011;25774;52.256;9.356;2023-09-19T01:57:39;7.13;;;2.45;;
40072;SDS011;25774;52.256;9.356;2023-09-19T02:00:06;4.45;;;2.30;;
40072;SDS011;25774;52.256;9.356;2023-09-19T02:02:34;2.92;;;1.52;;
40072;SDS011;25774;52.256;9.356;2023-09-19T02:04:59;6.22;;;1.95;;
40072;SDS011;25774;52.256;9.356;2023-09-19T02:07:28;3.73;;;1.53;;
40072;SDS011;25774;52.256;9.356;2023-09-19T02:09:55;3.78;;;2.05;;
40072;SDS011;25774;52.256;9.356;2023-09-19T02:12:20;7.65;;;3.58;;
40072;SDS011;25774;52.256;9.356;2023-09-19T02:14:45;4.00;;;2.30;;
40072;SDS011;25774;52.256;9.356;2023-09-19T02:17:11;4.07;;;2.20;;
40072;SDS011;25774;52.256;9.356;2023-09-19T02:19:37;3.33;;;2.10;;
40072;SDS011;25774;52.256;9.356;2023-09-19T02:22:03;4.75;;;2.10;;
40072;SDS011;25774;52.256;9.356;2023-09-19T02:24:32;4.63;;;2.05;;
40072;SDS011;25774;52.256;9.356;2023-09-19T02:26:57;4.20;;;2.17;;
40072;SDS011;25774;52.256;9.356;2023-09-19T02:29:24;4.63;;;2.20;;
40072;SDS011;25774;52.256;9.356;2023-09-19T02:31:52;3.67;;;2.15;;
40072;SDS011;25774;52.256;9.356;2023-09-19T02:34:18;5.80;;;2.17;;
40072;SDS011;25774;52.256;9.356;2023-09-19T02:36:44;3.42;;;2.10;;
40072;SDS011;25774;52.256;9.356;2023-09-19T02:39:09;5.53;;;2.70;;
40072;SDS011;25774;52.256;9.356;2023-09-19T02:41:36;5.22;;;2.17;;
40072;SDS011;25774;52.256;9.356;2023-09-19T02:44:01;4.23;;;2.10;;
40072;SDS011;25774;52.256;9.356;2023-09-19T02:46:26;6.43;;;2.23;;
40072;SDS011;25774;52.256;9.356;2023-09-19T02:48:52;5.05;;;2.33;;
40072;SDS011;25774;52.256;9.356;2023-09-19T02:51:17;3.30;;;2.00;;
40072;SDS011;25774;52.256;9.356;2023-09-19T02:53:42;3.23;;;1.90;;
40072;SDS011;25774;52.256;9.356;2023-09-19T02:56:08;3.23;;;1.73;;
40072;SDS011;25774;52.256;9.356;2023-09-19T02:58:34;5.53;;;1.73;;
40072;SDS011;25774;52.256;9.356;2023-09-19T03:01:07;3.90;;;1.70;;
40072;SDS011;25774;52.256;9.356;2023-09-19T03:03:33;5.75;;;1.85;;
40072;SDS011;25774;52.256;9.356;2023-09-19T03:05:58;5.27;;;1.23;;
40072;SDS011;25774;52.256;9.356;2023-09-19T03:08:23;9.17;;;1.80;;
40072;SDS011;25774;52.256;9.356;2023-09-19T03:13:16;7.82;;;1.70;;
40072;SDS011;25774;52.256;9.356;2023-09-19T03:15:42;2.93;;;1.33;;
40072;SDS011;25774;52.256;9.356;2023-09-19T03:18:12;4.53;;;1.48;;
40072;SDS011;25774;52.256;9.356;2023-09-19T03:20:39;3.65;;;1.60;;
40072;SDS011;25774;52.256;9.356;2023-09-19T03:25:35;1.90;;;1.08;;
40072;SDS011;25774;52.256;9.356;2023-09-19T03:28:01;3.25;;;1.38;;
40072;SDS011;25774;52.256;9.356;2023-09-19T03:30:28;2.72;;;1.10;;
40072;SDS011;25774;52.256;9.356;2023-09-19T03:32:53;2.30;;;1.03;;
40072;SDS011;25774;52.256;9.356;2023-09-19T03:35:18;3.37;;;1.20;;
40072;SDS011;25774;52.256;9.356;2023-09-19T03:37:44;3.28;;;1.05;;
40072;SDS011;25774;52.256;9.356;2023-09-19T03:40:10;4.20;;;1.30;;
40072;SDS011;25774;52.256;9.356;2023-09-19T03:42:37;2.85;;;0.80;;
40072;SDS011;25774;52.256;9.356;2023-09-19T03:45:03;3.63;;;1.00;;
40072;SDS011;25774;52.256;9.356;2023-09-19T03:47:28;3.23;;;1.30;;
40072;SDS011;25774;52.256;9.356;2023-09-19T03:49:53;3.53;;;1.13;;
40072;SDS011;25774;52.256;9.356;2023-09-19T03:52:19;1.40;;;0.70;;
40072;SDS011;25774;52.256;9.356;2023-09-19T03:54:45;3.43;;;0.83;;
40072;SDS011;25774;52.256;9.356;2023-09-19T03:59:41;4.72;;;0.90;;
40072;SDS011;25774;52.256;9.356;2023-09-19T04:02:08;3.25;;;1.10;;
40072;SDS011;25774;52.256;9.356;2023-09-19T04:04:37;1.90;;;1.02;;
40072;SDS011;25774;52.256;9.356;2023-09-19T04:07:03;3.03;;;1.37;;
40072;SDS011;25774;52.256;9.356;2023-09-19T04:11:53;2.42;;;0.90;;
40072;SDS011;25774;52.256;9.356;2023-09-19T04:14:18;1.33;;;0.77;;
40072;SDS011;25774;52.256;9.356;2023-09-19T04:19:13;2.33;;;0.95;;
40072;SDS011;25774;52.256;9.356;2023-09-19T04:21:40;1.65;;;0.90;;
40072;SDS011;25774;52.256;9.356;2023-09-19T04:24:06;3.22;;;1.30;;
40072;SDS011;25774;52.256;9.356;2023-09-19T04:26:31;5.67;;;1.27;;
40072;SDS011;25774;52.256;9.356;2023-09-19T04:28:58;4.23;;;1.60;;
40072;SDS011;25774;52.256;9.356;2023-09-19T04:31:23;3.53;;;1.65;;
40072;SDS011;25774;52.256;9.356;2023-09-19T04:33:50;2.60;;;1.60;;
40072;SDS011;25774;52.256;9.356;2023-09-19T04:36:15;4.30;;;1.65;;
40072;SDS011;25774;52.256;9.356;2023-09-19T04:38:40;3.70;;;1.53;;
40072;SDS011;25774;52.256;9.356;2023-09-19T04:41:06;5.03;;;2.00;;
40072;SDS011;25774;52.256;9.356;2023-09-19T04:43:31;5.83;;;2.00;;
40072;SDS011;25774;52.256;9.356;2023-09-19T04:45:57;6.80;;;2.30;;
40072;SDS011;25774;52.256;9.356;2023-09-19T04:48:22;7.90;;;2.90;;
40072;SDS011;25774;52.256;9.356;2023-09-19T04:50:49;5.55;;;2.72;;
40072;SDS011;25774;52.256;9.356;2023-09-19T04:53:14;5.87;;;2.67;;
40072;SDS011;25774;52.256;9.356;2023-09-19T04:55:41;3.93;;;2.47;;
40072;SDS011;25774;52.256;9.356;2023-09-19T04:58:06;3.97;;;2.40;;
40072;SDS011;25774;52.256;9.356;2023-09-19T05:00:31;5.00;;;2.47;;
40072;SDS011;25774;52.256;9.356;2023-09-19T05:03:01;10.77;;;2.60;;
40072;SDS011;25774;52.256;9.356;2023-09-19T05:07:51;4.10;;;2.30;;
40072;SDS011;25774;52.256;9.356;2023-09-19T05:10:19;5.47;;;2.08;;
40072;SDS011;25774;52.256;9.356;2023-09-19T05:12:45;5.97;;;2.75;;
40072;SDS011;25774;52.256;9.356;2023-09-19T05:15:13;3.65;;;2.33;;
40072;SDS011;25774;52.256;9.356;2023-09-19T05:17:48;6.72;;;2.50;;
40072;SDS011;25774;52.256;9.356;2023-09-19T05:20:17;4.75;;;2.45;;
40072;SDS011;25774;52.256;9.356;2023-09-19T05:23:01;5.72;;;2.45;;
40072;SDS011;25774;52.256;9.356;2023-09-19T05:25:27;5.03;;;2.40;;
40072;SDS011;25774;52.256;9.356;2023-09-19T05:27:54;5.03;;;2.00;;
40072;SDS011;25774;52.256;9.356;2023-09-19T05:30:19;5.70;;;2.25;;
40072;SDS011;25774;52.256;9.356;2023-09-19T05:32:46;5.90;;;2.00;;
40072;SDS011;25774;52.256;9.356;2023-09-19T05:37:40;5.50;;;2.92;;
40072;SDS011;25774;52.256;9.356;2023-09-19T05:40:06;5.55;;;2.50;;
40072;SDS011;25774;52.256;9.356;2023-09-19T05:42:38;5.20;;;2.25;;
40072;SDS011;25774;52.256;9.356;2023-09-19T05:45:06;6.07;;;2.25;;
40072;SDS011;25774;52.256;9.356;2023-09-19T05:47:31;5.57;;;2.03;;
40072;SDS011;25774;52.256;9.356;2023-09-19T05:49:59;6.03;;;2.33;;
40072;SDS011;25774;52.256;9.356;2023-09-19T05:52:24;8.48;;;2.78;;
40072;SDS011;25774;52.256;9.356;2023-09-19T05:54:52;5.80;;;2.25;;
40072;SDS011;25774;52.256;9.356;2023-09-19T05:57:17;3.60;;;1.67;;
40072;SDS011;25774;52.256;9.356;2023-09-19T05:59:42;4.30;;;2.13;;
40072;SDS011;25774;52.256;9.356;2023-09-19T06:02:09;6.65;;;2.42;;
40072;SDS011;25774;52.256;9.356;2023-09-19T06:04:36;6.32;;;1.95;;
40072;SDS011;25774;52.256;9.356;2023-09-19T06:07:01;8.60;;;2.70;;
40072;SDS011;25774;52.256;9.356;2023-09-19T06:09:29;7.18;;;2.45;;
40072;SDS011;25774;52.256;9.356;2023-09-19T06:11:57;5.18;;;2.00;;
40072;SDS011;25774;52.256;9.356;2023-09-19T06:14:22;4.45;;;1.65;;
40072;SDS011;25774;52.256;9.356;2023-09-19T06:16:49;5.05;;;2.00;;
40072;SDS011;25774;52.256;9.356;2023-09-19T06:19:14;5.50;;;2.07;;
40072;SDS011;25774;52.256;9.356;2023-09-19T06:21:41;8.77;;;1.93;;
40072;SDS011;25774;52.256;9.356;2023-09-19T06:26:32;5.07;;;1.90;;
40072;SDS011;25774;52.256;9.356;2023-09-19T06:28:57;5.80;;;2.00;;
40072;SDS011;25774;52.256;9.356;2023-09-19T06:31:24;4.47;;;1.50;;
40072;SDS011;25774;52.256;9.356;2023-09-19T06:33:53;4.93;;;1.70;;
40072;SDS011;25774;52.256;9.356;2023-09-19T06:36:18;4.05;;;1.30;;
40072;SDS011;25774;52.256;9.356;2023-09-19T06:38:44;8.88;;;1.80;;
40072;SDS011;25774;52.256;9.356;2023-09-19T06:41:09;6.20;;;2.00;;
40072;SDS011;25774;52.256;9.356;2023-09-19T06:43:35;4.57;;;1.33;;
40072;SDS011;25774;52.256;9.356;2023-09-19T06:46:00;3.30;;;1.00;;
40072;SDS011;25774;52.256;9.356;2023-09-19T06:48:26;7.43;;;1.40;;
40072;SDS011;25774;52.256;9.356;2023-09-19T06:50:54;8.45;;;2.05;;
40072;SDS011;25774;52.256;9.356;2023-09-19T06:53:21;3.47;;;1.23;;
40072;SDS011;25774;52.256;9.356;2023-09-19T06:55:48;6.75;;;1.50;;
40072;SDS011;25774;52.256;9.356;2023-09-19T06:58:14;8.83;;;1.80;;
40072;SDS011;25774;52.256;9.356;2023-09-19T07:00:41;8.23;;;1.90;;
40072;SDS011;25774;52.256;9.356;2023-09-19T07:03:07;6.40;;;1.20;;
40072;SDS011;25774;52.256;9.356;2023-09-19T07:05:38;5.30;;;1.20;;
40072;SDS011;25774;52.256;9.356;2023-09-19T07:08:04;4.35;;;1.10;;
40072;SDS011;25774;52.256;9.356;2023-09-19T07:10:31;5.00;;;1.23;;
40072;SDS011;25774;52.256;9.356;2023-09-19T07:13:04;4.93;;;0.98;;
40072;SDS011;25774;52.256;9.356;2023-09-19T07:15:32;6.45;;;1.30;;
40072;SDS011;25774;52.256;9.356;2023-09-19T07:18:03;6.00;;;1.40;;
40072;SDS011;25774;52.256;9.356;2023-09-19T07:20:29;7.05;;;1.60;;
40072;SDS011;25774;52.256;9.356;2023-09-19T07:22:57;8.60;;;1.60;;
40072;SDS011;25774;52.256;9.356;2023-09-19T07:25:24;5.28;;;1.40;;
40072;SDS011;25774;52.256;9.356;2023-09-19T07:27:50;4.40;;;1.13;;
40072;SDS011;25774;52.256;9.356;2023-09-19T07:30:16;4.80;;;1.25;;
40072;SDS011;25774;52.256;9.356;2023-09-19T07:32:41;5.35;;;1.10;;
40072;SDS011;25774;52.256;9.356;2023-09-19T07:35:07;6.47;;;0.90;;
40072;SDS011;25774;52.256;9.356;2023-09-19T07:37:33;3.77;;;1.10;;
40072;SDS011;25774;52.256;9.356;2023-09-19T07:40:05;4.63;;;1.30;;
40072;SDS011;25774;52.256;9.356;2023-09-19T07:42:34;4.75;;;1.17;;
40072;SDS011;25774;52.256;9.356;2023-09-19T07:45:05;4.28;;;1.10;;
40072;SDS011;25774;52.256;9.356;2023-09-19T07:47:31;3.45;;;0.88;;
40072;SDS011;25774;52.256;9.356;2023-09-19T07:49:57;5.28;;;1.02;;
40072;SDS011;25774;52.256;9.356;2023-09-19T07:52:23;4.70;;;1.25;;
40072;SDS011;25774;52.256;9.356;2023-09-19T07:54:49;6.33;;;1.40;;
40072;SDS011;25774;52.256;9.356;2023-09-19T07:57:14;4.53;;;1.00;;
40072;SDS011;25774;52.256;9.356;2023-09-19T07:59:40;7.28;;;2.00;;
40072;SDS011;25774;52.256;9.356;2023-09-19T08:02:07;5.95;;;1.30;;
40072;SDS011;25774;52.256;9.356;2023-09-19T08:04:35;5.68;;;1.55;;
40072;SDS011;25774;52.256;9.356;2023-09-19T08:09:29;2.65;;;0.70;;
40072;SDS011;25774;52.256;9.356;2023-09-19T08:11:58;4.63;;;0.90;;
40072;SDS011;25774;52.256;9.356;2023-09-19T08:14:23;7.70;;;1.30;;
40072;SDS011;25774;52.256;9.356;2023-09-19T08:16:50;4.93;;;1.38;;
40072;SDS011;25774;52.256;9.356;2023-09-19T08:19:18;3.70;;;1.13;;
40072;SDS011;25774;52.256;9.356;2023-09-19T08:21:49;4.18;;;0.95;;
40072;SDS011;25774;52.256;9.356;2023-09-19T08:24:14;4.28;;;0.90;;
40072;SDS011;25774;52.256;9.356;2023-09-19T08:26:40;3.83;;;0.90;;
40072;SDS011;25774;52.256;9.356;2023-09-19T08:29:05;4.70;;;1.30;;
40072;SDS011;25774;52.256;9.356;2023-09-19T08:31:37;3.78;;;1.15;;
40072;SDS011;25774;52.256;9.356;2023-09-19T08:34:02;5.75;;;1.42;;
40072;SDS011;25774;52.256;9.356;2023-09-19T08:36:28;7.40;;;1.37;;
40072;SDS011;25774;52.256;9.356;2023-09-19T08:38:55;6.97;;;1.08;;
40072;SDS011;25774;52.256;9.356;2023-09-19T08:43:49;5.60;;;0.90;;
40072;SDS011;25774;52.256;9.356;2023-09-19T08:46:16;3.00;;;0.70;;
40072;SDS011;25774;52.256;9.356;2023-09-19T08:48:45;6.32;;;1.23;;
40072;SDS011;25774;52.256;9.356;2023-09-19T08:51:20;4.63;;;1.10;;
40072;SDS011;25774;52.256;9.356;2023-09-19T08:56:15;4.40;;;0.90;;
40072;SDS011;25774;52.256;9.356;2023-09-19T09:01:14;8.52;;;1.30;;
40072;SDS011;25774;52.256;9.356;2023-09-19T09:03:39;4.38;;;0.90;;
40072;SDS011;25774;52.256;9.356;2023-09-19T09:06:05;5.90;;;1.38;;
40072;SDS011;25774;52.256;9.356;2023-09-19T09:08:32;3.50;;;0.68;;
40072;SDS011;25774;52.256;9.356;2023-09-19T09:10:58;5.97;;;1.23;;
40072;SDS011;25774;52.256;9.356;2023-09-19T09:15:51;5.10;;;1.13;;
40072;SDS011;25774;52.256;9.356;2023-09-19T09:18:16;4.30;;;1.10;;
40072;SDS011;25774;52.256;9.356;2023-09-19T09:20:43;5.03;;;1.00;;
40072;SDS011;25774;52.256;9.356;2023-09-19T09:23:09;5.28;;;1.10;;
40072;SDS011;25774;52.256;9.356;2023-09-19T09:28:13;5.22;;;1.30;;
40072;SDS011;25774;52.256;9.356;2023-09-19T09:30:44;6.13;;;1.15;;
40072;SDS011;25774;52.256;9.356;2023-09-19T09:33:10;7.30;;;1.50;;
40072;SDS011;25774;52.256;9.356;2023-09-19T09:35:55;4.05;;;1.20;;
40072;SDS011;25774;52.256;9.356;2023-09-19T09:38:29;4.95;;;1.00;;
40072;SDS011;25774;52.256;9.356;2023-09-19T09:40:58;3.63;;;1.00;;
40072;SDS011;25774;52.256;9.356;2023-09-19T09:43:31;4.40;;;0.90;;
40072;SDS011;25774;52.256;9.356;2023-09-19T09:46:09;3.70;;;0.95;;
40072;SDS011;25774;52.256;9.356;2023-09-19T09:51:39;5.53;;;0.85;;
40072;SDS011;25774;52.256;9.356;2023-09-19T09:54:13;6.35;;;1.38;;
40072;SDS011;25774;52.256;9.356;2023-09-19T09:56:52;3.35;;;0.68;;
40072;SDS011;25774;52.256;9.356;2023-09-19T09:59:18;3.60;;;1.13;;
40072;SDS011;25774;52.256;9.356;2023-09-19T10:01:47;4.38;;;1.05;;
40072;SDS011;25774;52.256;9.356;2023-09-19T10:04:15;6.50;;;1.73;;
40072;SDS011;25774;52.256;9.356;2023-09-19T10:06:55;5.97;;;1.20;;
40072;SDS011;25774;52.256;9.356;2023-09-19T10:09:21;6.30;;;1.38;;
40072;SDS011;25774;52.256;9.356;2023-09-19T10:12:12;8.02;;;1.83;;
40072;SDS011;25774;52.256;9.356;2023-09-19T10:14:39;6.00;;;1.50;;
40072;SDS011;25774;52.256;9.356;2023-09-19T10:17:10;5.65;;;1.30;;
40072;SDS011;25774;52.256;9.356;2023-09-19T10:19:54;7.88;;;1.73;;
40072;SDS011;25774;52.256;9.356;2023-09-19T10:22:22;5.82;;;1.58;;
40072;SDS011;25774;52.256;9.356;2023-09-19T10:24:50;5.72;;;1.20;;
40072;SDS011;25774;52.256;9.356;2023-09-19T10:27:18;6.70;;;1.30;;
40072;SDS011;25774;52.256;9.356;2023-09-19T10:29:46;5.13;;;1.13;;
40072;SDS011;25774;52.256;9.356;2023-09-19T10:32:15;6.32;;;1.13;;
40072;SDS011;25774;52.256;9.356;2023-09-19T10:34:45;7.95;;;1.55;;
40072;SDS011;25774;52.256;9.356;2023-09-19T10:37:12;6.13;;;1.52;;
40072;SDS011;25774;52.256;9.356;2023-09-19T10:39:37;5.10;;;1.70;;
40072;SDS011;25774;52.256;9.356;2023-09-19T10:42:04;5.80;;;1.52;;
40072;SDS011;25774;52.256;9.356;2023-09-19T10:44:32;5.78;;;1.48;;
40072;SDS011;25774;52.256;9.356;2023-09-19T10:46:57;6.90;;;1.60;;
40072;SDS011;25774;52.256;9.356;2023-09-19T10:49:24;5.40;;;1.73;;
40072;SDS011;25774;52.256;9.356;2023-09-19T10:51:54;4.82;;;1.52;;
40072;SDS011;25774;52.256;9.356;2023-09-19T10:54:21;3.55;;;1.20;;
40072;SDS011;25774;52.256;9.356;2023-09-19T10:56:51;4.65;;;1.27;;
40072;SDS011;25774;52.256;9.356;2023-09-19T10:59:18;3.53;;;1.02;;
40072;SDS011;25774;52.256;9.356;2023-09-19T11:04:33;5.40;;;1.33;;
40072;SDS011;25774;52.256;9.356;2023-09-19T11:09:51;3.90;;;1.13;;
40072;SDS011;25774;52.256;9.356;2023-09-19T11:15:01;7.22;;;1.88;;
40072;SDS011;25774;52.256;9.356;2023-09-19T11:30:37;2.97;;;0.90;;
40072;SDS011;25774;52.256;9.356;2023-09-19T11:33:21;2.47;;;1.00;;
40072;SDS011;25774;52.256;9.356;2023-09-19T11:43:51;2.88;;;0.82;;
40072;SDS011;25774;52.256;9.356;2023-09-19T11:46:17;4.75;;;1.27;;
40072;SDS011;25774;52.256;9.356;2023-09-19T11:48:47;3.40;;;0.90;;
40072;SDS011;25774;52.256;9.356;2023-09-19T11:51:22;3.70;;;1.27;;
40072;SDS011;25774;52.256;9.356;2023-09-19T11:53:56;4.60;;;1.43;;
40072;SDS011;25774;52.256;9.356;2023-09-19T11:56:23;4.53;;;1.15;;
40072;SDS011;25774;52.256;9.356;2023-09-19T11:58:53;5.72;;;1.90;;
40072;SDS011;25774;52.256;9.356;2023-09-19T12:01:31;8.40;;;1.77;;
40072;SDS011;25774;52.256;9.356;2023-09-19T12:03:58;5.32;;;1.58;;
40072;SDS011;25774;52.256;9.356;2023-09-19T12:06:25;2.55;;;1.00;;
40072;SDS011;25774;52.256;9.356;2023-09-19T12:08:50;9.27;;;1.83;;
40072;SDS011;25774;52.256;9.356;2023-09-19T12:11:19;4.90;;;1.00;;
40072;SDS011;25774;52.256;9.356;2023-09-19T12:13:46;4.07;;;1.20;;
40072;SDS011;25774;52.256;9.356;2023-09-19T12:16:21;7.43;;;1.50;;
40072;SDS011;25774;52.256;9.356;2023-09-19T12:18:47;4.03;;;1.15;;
40072;SDS011;25774;52.256;9.356;2023-09-19T12:23:38;3.92;;;0.80;;
40072;SDS011;25774;52.256;9.356;2023-09-19T12:26:07;3.60;;;1.30;;
40072;SDS011;25774;52.256;9.356;2023-09-19T12:28:41;4.95;;;1.52;;
40072;SDS011;25774;52.256;9.356;2023-09-19T12:31:07;2.40;;;1.00;;
40072;SDS011;25774;52.256;9.356;2023-09-19T12:36:00;6.95;;;1.77;;
40072;SDS011;25774;52.256;9.356;2023-09-19T12:38:28;4.05;;;1.23;;
40072;SDS011;25774;52.256;9.356;2023-09-19T12:40:56;4.77;;;1.20;;
40072;SDS011;25774;52.256;9.356;2023-09-19T12:43:25;5.43;;;1.15;;
40072;SDS011;25774;52.256;9.356;2023-09-19T12:45:51;3.53;;;1.40;;
40072;SDS011;25774;52.256;9.356;2023-09-19T12:53:33;4.75;;;1.05;;
40072;SDS011;25774;52.256;9.356;2023-09-19T12:56:01;6.45;;;1.17;;
40072;SDS011;25774;52.256;9.356;2023-09-19T12:58:27;4.53;;;1.20;;
40072;SDS011;25774;52.256;9.356;2023-09-19T13:00:55;2.92;;;1.00;;
40072;SDS011;25774;52.256;9.356;2023-09-19T13:08:25;4.22;;;1.10;;
40072;SDS011;25774;52.256;9.356;2023-09-19T13:11:10;4.43;;;1.23;;
40072;SDS011;25774;52.256;9.356;2023-09-19T13:13:38;3.15;;;1.00;;
40072;SDS011;25774;52.256;9.356;2023-09-19T13:16:06;6.88;;;1.48;;
40072;SDS011;25774;52.256;9.356;2023-09-19T13:18:46;4.13;;;1.42;;
40072;SDS011;25774;52.256;9.356;2023-09-19T13:21:13;5.47;;;1.08;;
40072;SDS011;25774;52.256;9.356;2023-09-19T13:23:52;4.00;;;1.25;;
40072;SDS011;25774;52.256;9.356;2023-09-19T13:26:17;4.43;;;1.17;;
40072;SDS011;25774;52.256;9.356;2023-09-19T13:31:09;2.50;;;0.63;;
40072;SDS011;25774;52.256;9.356;2023-09-19T13:33:35;3.95;;;0.98;;
40072;SDS011;25774;52.256;9.356;2023-09-19T13:36:08;4.93;;;1.00;;
40072;SDS011;25774;52.256;9.356;2023-09-19T13:38:35;3.40;;;0.85;;
40072;SDS011;25774;52.256;9.356;2023-09-19T13:43:31;3.58;;;1.08;;
40072;SDS011;25774;52.256;9.356;2023-09-19T13:45:56;4.93;;;1.20;;
40072;SDS011;25774;52.256;9.356;2023-09-19T13:48:22;3.53;;;0.90;;
40072;SDS011;25774;52.256;9.356;2023-09-19T13:50:49;3.80;;;1.23;;
40072;SDS011;25774;52.256;9.356;2023-09-19T13:53:14;4.23;;;1.63;;
40072;SDS011;25774;52.256;9.356;2023-09-19T13:55:39;4.25;;;1.13;;
40072;SDS011;25774;52.256;9.356;2023-09-19T13:58:05;4.55;;;1.23;;
40072;SDS011;25774;52.256;9.356;2023-09-19T14:00:32;6.50;;;1.33;;
40072;SDS011;25774;52.256;9.356;2023-09-19T14:03:00;5.70;;;1.40;;
40072;SDS011;25774;52.256;9.356;2023-09-19T14:05:26;5.68;;;1.30;;
40072;SDS011;25774;52.256;9.356;2023-09-19T14:10:25;4.85;;;0.90;;
40072;SDS011;25774;52.256;9.356;2023-09-19T14:12:53;4.30;;;1.13;;
40072;SDS011;25774;52.256;9.356;2023-09-19T14:15:18;3.60;;;0.80;;
40072;SDS011;25774;52.256;9.356;2023-09-19T14:20:13;2.53;;;1.00;;
40072;SDS011;25774;52.256;9.356;2023-09-19T14:22:40;5.30;;;1.13;;
40072;SDS011;25774;52.256;9.356;2023-09-19T14:25:07;4.70;;;1.15;;
40072;SDS011;25774;52.256;9.356;2023-09-19T14:27:32;6.93;;;1.55;;
40072;SDS011;25774;52.256;9.356;2023-09-19T14:29:57;5.13;;;1.60;;
40072;SDS011;25774;52.256;9.356;2023-09-19T14:32:28;5.27;;;1.93;;
40072;SDS011;25774;52.256;9.356;2023-09-19T14:34:53;3.92;;;1.17;;
40072;SDS011;25774;52.256;9.356;2023-09-19T14:37:18;4.07;;;1.00;;
40072;SDS011;25774;52.256;9.356;2023-09-19T14:39:46;4.05;;;0.95;;
40072;SDS011;25774;52.256;9.356;2023-09-19T14:42:13;5.17;;;1.03;;
40072;SDS011;25774;52.256;9.356;2023-09-19T14:44:42;3.70;;;1.02;;
40072;SDS011;25774;52.256;9.356;2023-09-19T14:47:07;4.33;;;1.10;;
40072;SDS011;25774;52.256;9.356;2023-09-19T14:49:40;2.43;;;0.63;;
40072;SDS011;25774;52.256;9.356;2023-09-19T14:52:09;5.22;;;0.82;;
40072;SDS011;25774;52.256;9.356;2023-09-19T14:54:37;2.20;;;0.80;;
40072;SDS011;25774;52.256;9.356;2023-09-19T14:57:06;1.85;;;0.63;;
40072;SDS011;25774;52.256;9.356;2023-09-19T14:59:33;3.50;;;1.05;;
40072;SDS011;25774;52.256;9.356;2023-09-19T15:02:09;4.55;;;0.80;;
40072;SDS011;25774;52.256;9.356;2023-09-19T15:04:34;3.58;;;1.00;;
40072;SDS011;25774;52.256;9.356;2023-09-19T15:06:59;2.07;;;0.80;;
40072;SDS011;25774;52.256;9.356;2023-09-19T15:09:25;3.37;;;0.80;;
40072;SDS011;25774;52.256;9.356;2023-09-19T15:14:17;4.35;;;0.93;;
40072;SDS011;25774;52.256;9.356;2023-09-19T15:16:44;3.08;;;1.10;;
40072;SDS011;25774;52.256;9.356;2023-09-19T15:19:09;2.83;;;0.80;;
40072;SDS011;25774;52.256;9.356;2023-09-19T15:21:35;3.20;;;0.88;;
40072;SDS011;25774;52.256;9.356;2023-09-19T15:24:00;7.20;;;1.42;;
40072;SDS011;25774;52.256;9.356;2023-09-19T15:26:26;7.50;;;1.13;;
40072;SDS011;25774;52.256;9.356;2023-09-19T15:28:51;2.08;;;0.60;;
40072;SDS011;25774;52.256;9.356;2023-09-19T15:31:17;6.47;;;1.35;;
40072;SDS011;25774;52.256;9.356;2023-09-19T15:33:44;4.80;;;1.27;;
40072;SDS011;25774;52.256;9.356;2023-09-19T15:41:15;5.95;;;0.80;;
40072;SDS011;25774;52.256;9.356;2023-09-19T15:43:41;2.83;;;0.60;;
40072;SDS011;25774;52.256;9.356;2023-09-19T15:46:06;4.00;;;0.70;;
40072;SDS011;25774;52.256;9.356;2023-09-19T15:48:32;2.93;;;0.83;;
40072;SDS011;25774;52.256;9.356;2023-09-19T15:53:22;2.78;;;0.70;;
40072;SDS011;25774;52.256;9.356;2023-09-19T15:55:48;2.20;;;1.00;;
40072;SDS011;25774;52.256;9.356;2023-09-19T15:58:13;3.43;;;0.60;;
40072;SDS011;25774;52.256;9.356;2023-09-19T16:00:39;2.47;;;0.50;;
40072;SDS011;25774;52.256;9.356;2023-09-19T16:03:05;3.55;;;0.80;;
40072;SDS011;25774;52.256;9.356;2023-09-19T16:05:37;3.17;;;0.87;;
40072;SDS011;25774;52.256;9.356;2023-09-19T16:08:03;2.70;;;0.70;;
40072;SDS011;25774;52.256;9.356;2023-09-19T16:10:28;4.57;;;0.98;;
40072;SDS011;25774;52.256;9.356;2023-09-19T16:12:53;2.30;;;0.82;;
40072;SDS011;25774;52.256;9.356;2023-09-19T16:15:19;2.40;;;0.70;;
40072;SDS011;25774;52.256;9.356;2023-09-19T16:17:44;2.67;;;0.97;;
40072;SDS011;25774;52.256;9.356;2023-09-19T16:20:10;1.70;;;0.60;;
40072;SDS011;25774;52.256;9.356;2023-09-19T16:22:37;3.65;;;1.00;;
40072;SDS011;25774;52.256;9.356;2023-09-19T16:25:03;4.82;;;0.90;;
40072;SDS011;25774;52.256;9.356;2023-09-19T16:27:28;3.42;;;0.93;;
40072;SDS011;25774;52.256;9.356;2023-09-19T16:32:20;3.40;;;1.00;;
40072;SDS011;25774;52.256;9.356;2023-09-19T16:34:45;2.63;;;0.93;;
40072;SDS011;25774;52.256;9.356;2023-09-19T16:37:10;2.63;;;0.70;;
40072;SDS011;25774;52.256;9.356;2023-09-19T16:39:35;4.93;;;0.80;;
40072;SDS011;25774;52.256;9.356;2023-09-19T16:42:01;3.05;;;0.75;;
40072;SDS011;25774;52.256;9.356;2023-09-19T16:44:27;3.53;;;1.10;;
40072;SDS011;25774;52.256;9.356;2023-09-19T16:46:53;5.15;;;1.27;;
40072;SDS011;25774;52.256;9.356;2023-09-19T16:51:47;1.83;;;0.70;;
40072;SDS011;25774;52.256;9.356;2023-09-19T16:54:12;1.53;;;0.70;;
40072;SDS011;25774;52.256;9.356;2023-09-19T16:56:37;4.57;;;1.00;;
40072;SDS011;25774;52.256;9.356;2023-09-19T16:59:05;2.38;;;0.60;;
40072;SDS011;25774;52.256;9.356;2023-09-19T17:01:30;4.15;;;0.80;;